sensor_id;sensor_type;location;lat;lon;timestamp;noise_LAeq;noise_LA_min;noise_LA_max;noise_LA01;noise_LA95
66450;Laerm;56829;52.274;4.770;2023-07-13T00:00:03;37.08;34.39;40.56;;
66450;Laerm;56829;52.274;4.770;2023-07-13T00:00:15;35.63;33.74;42.79;;
66450;Laerm;56829;52.274;4.770;2023-07-13T00:00:26;35.72;33.25;47.30;;
66450;Laerm;56829;52.274;4.770;2023-07-13T00:00:36;35.19;33.19;39.85;;
66450;Laerm;56829;52.274;4.770;2023-07-13T00:00:46;35.23;33.35;39.90;;
66450;Laerm;56829;52.274;4.770;2023-07-13T00:00:57;36.98;34.40;40.79;;
66450;Laerm;56829;52.274;4.770;2023-07-13T00:01:07;36.25;34.45;42.76;;
66450;Laerm;56829;52.274;4.770;2023-07-13T00:01:17;35.77;33.59;39.45;;
66450;Laerm;56829;52.274;4.770;2023-07-13T00:01:28;38.23;34.21;42.95;;
66450;Laerm;56829;52.274;4.770;2023-07-13T00:01:38;35.77;33.06;40.21;;
66450;Laerm;56829;52.274;4.770;2023-07-13T00:01:48;35.65;33.39;41.21;;
66450;Laerm;56829;52.274;4.770;2023-07-13T00:02:02;34.67;32.30;37.60;;
66450;Laerm;56829;52.274;4.770;2023-07-13T00:02:12;34.45;33.02;37.00;;
66450;Laerm;56829;52.274;4.770;2023-07-13T00:02:24;34.56;32.80;36.37;;
66450;Laerm;56829;52.274;4.770;2023-07-13T00:02:36;34.24;32.60;35.98;;
66450;Laerm;56829;52.274;4.770;2023-07-13T00:02:47;34.95;32.47;38.99;;
66450;Laerm;56829;52.274;4.770;2023-07-13T00:02:57;34.99;32.67;39.95;;
66450;Laerm;56829;52.274;4.770;2023-07-13T00:03:07;35.85;32.63;46.28;;
66450;Laerm;56829;52.274;4.770;2023-07-13T00:03:18;35.37;33.59;44.77;;
66450;Laerm;56829;52.274;4.770;2023-07-13T00:03:28;35.17;32.89;39.39;;
66450;Laerm;56829;52.274;4.770;2023-07-13T00:03:44;36.23;33.36;44.29;;
66450;Laerm;56829;52.274;4.770;2023-07-13T00:03:58;36.15;32.93;41.86;;
66450;Laerm;56829;52.274;4.770;2023-07-13T00:04:09;36.88;34.11;46.85;;
66450;Laerm;56829;52.274;4.770;2023-07-13T00:04:20;36.22;33.35;40.55;;
66450;Laerm;56829;52.274;4.770;2023-07-13T00:04:31;35.85;33.21;43.14;;
66450;Laerm;56829;52.274;4.770;2023-07-13T00:04:41;34.53;32.62;39.01;;
66450;Laerm;56829;52.274;4.770;2023-07-13T00:04:51;34.74;33.10;36.72;;
66450;Laerm;56829;52.274;4.770;2023-07-13T00:05:02;36.10;33.03;42.48;;
66450;Laerm;56829;52.274;4.770;2023-07-13T00:05:12;35.37;33.28;40.06;;
66450;Laerm;56829;52.274;4.770;2023-07-13T00:05:23;34.89;33.29;36.91;;
66450;Laerm;56829;52.274;4.770;2023-07-13T00:05:33;35.59;33.61;39.46;;
66450;Laerm;56829;52.274;4.770;2023-07-13T00:05:43;35.46;33.28;45.48;;
66450;Laerm;56829;52.274;4.770;2023-07-13T00:05:57;35.43;33.19;41.52;;
66450;Laerm;56829;52.274;4.770;2023-07-13T00:06:07;36.78;34.43;39.99;;
66450;Laerm;56829;52.274;4.770;2023-07-13T00:06:18;36.03;33.72;38.71;;
66450;Laerm;56829;52.274;4.770;2023-07-13T00:06:30;35.50;33.61;37.64;;
66450;Laerm;56829;52.274;4.770;2023-07-13T00:06:43;34.61;32.75;37.00;;
66450;Laerm;56829;52.274;4.770;2023-07-13T00:06:54;34.85;33.06;37.04;;
66450;Laerm;56829;52.274;4.770;2023-07-13T00:07:05;35.91;32.73;39.71;;
66450;Laerm;56829;52.274;4.770;2023-07-13T00:07:15;37.24;34.73;40.64;;
66450;Laerm;56829;52.274;4.770;2023-07-13T00:07:25;48.13;38.48;55.61;;
66450;Laerm;56829;52.274;4.770;2023-07-13T00:07:35;37.40;33.49;43.39;;
66450;Laerm;56829;52.274;4.770;2023-07-13T00:07:47;34.82;32.33;39.41;;
66450;Laerm;56829;52.274;4.770;2023-07-13T00:07:58;34.94;33.06;39.38;;
66450;Laerm;56829;52.274;4.770;2023-07-13T00:08:08;35.00;33.00;43.71;;
66450;Laerm;56829;52.274;4.770;2023-07-13T00:08:18;35.08;32.51;41.71;;
66450;Laerm;56829;52.274;4.770;2023-07-13T00:08:30;34.64;32.79;37.87;;
66450;Laerm;56829;52.274;4.770;2023-07-13T00:08:43;34.27;32.49;37.62;;
66450;Laerm;56829;52.274;4.770;2023-07-13T00:08:53;35.35;33.34;37.69;;
66450;Laerm;56829;52.274;4.770;2023-07-13T00:09:03;34.52;32.90;38.86;;
66450;Laerm;56829;52.274;4.770;2023-07-13T00:09:14;34.58;32.61;40.49;;
66450;Laerm;56829;52.274;4.770;2023-07-13T00:09:25;35.75;33.23;40.97;;
66450;Laerm;56829;52.274;4.770;2023-07-13T00:09:35;35.26;33.24;37.17;;
66450;Laerm;56829;52.274;4.770;2023-07-13T00:09:46;35.40;33.46;38.06;;
66450;Laerm;56829;52.274;4.770;2023-07-13T00:09:56;35.84;34.37;37.98;;
66450;Laerm;56829;52.274;4.770;2023-07-13T00:10:07;36.37;34.03;39.62;;
66450;Laerm;56829;52.274;4.770;2023-07-13T00:10:18;38.49;34.76;46.96;;
66450;Laerm;56829;52.274;4.770;2023-07-13T00:10:28;36.23;33.87;46.95;;
66450;Laerm;56829;52.274;4.770;2023-07-13T00:10:39;35.47;33.77;38.28;;
66450;Laerm;56829;52.274;4.770;2023-07-13T00:10:51;35.71;33.23;38.26;;
66450;Laerm;56829;52.274;4.770;2023-07-13T00:11:04;34.99;33.24;39.13;;
66450;Laerm;56829;52.274;4.770;2023-07-13T00:11:15;35.46;33.86;37.11;;
66450;Laerm;56829;52.274;4.770;2023-07-13T00:11:25;35.88;33.55;37.31;;
66450;Laerm;56829;52.274;4.770;2023-07-13T00:11:36;35.36;33.47;37.45;;
66450;Laerm;56829;52.274;4.770;2023-07-13T00:11:49;35.68;33.87;38.18;;
66450;Laerm;56829;52.274;4.770;2023-07-13T00:12:00;37.38;35.42;43.07;;
66450;Laerm;56829;52.274;4.770;2023-07-13T00:12:56;40.44;35.45;54.20;;
66450;Laerm;56829;52.274;4.770;2023-07-13T00:13:07;40.61;36.70;47.41;;
66450;Laerm;56829;52.274;4.770;2023-07-13T00:13:18;38.24;36.34;42.74;;
66450;Laerm;56829;52.274;4.770;2023-07-13T00:13:28;39.14;34.07;44.94;;
66450;Laerm;56829;52.274;4.770;2023-07-13T00:13:39;35.11;33.09;37.16;;
66450;Laerm;56829;52.274;4.770;2023-07-13T00:13:50;35.71;33.86;37.75;;
66450;Laerm;56829;52.274;4.770;2023-07-13T00:14:00;38.18;34.62;49.37;;
66450;Laerm;56829;52.274;4.770;2023-07-13T00:14:11;43.46;35.42;55.26;;
66450;Laerm;56829;52.274;4.770;2023-07-13T00:14:21;37.59;33.84;51.09;;
66450;Laerm;56829;52.274;4.770;2023-07-13T00:14:32;35.62;34.02;39.48;;
66450;Laerm;56829;52.274;4.770;2023-07-13T00:14:42;35.67;33.81;38.26;;
66450;Laerm;56829;52.274;4.770;2023-07-13T00:14:52;36.44;33.84;40.23;;
66450;Laerm;56829;52.274;4.770;2023-07-13T00:15:36;35.60;33.32;42.86;;
66450;Laerm;56829;52.274;4.770;2023-07-13T00:15:45;37.66;35.04;42.62;;
66450;Laerm;56829;52.274;4.770;2023-07-13T00:15:46;34.62;32.95;36.55;;
66450;Laerm;56829;52.274;4.770;2023-07-13T00:15:58;34.22;32.18;36.00;;
66450;Laerm;56829;52.274;4.770;2023-07-13T00:16:08;42.86;33.97;51.68;;
66450;Laerm;56829;52.274;4.770;2023-07-13T00:16:19;51.12;39.21;60.01;;
66450;Laerm;56829;52.274;4.770;2023-07-13T00:16:29;40.62;37.23;44.17;;
66450;Laerm;56829;52.274;4.770;2023-07-13T00:16:39;38.98;36.68;41.40;;
66450;Laerm;56829;52.274;4.770;2023-07-13T00:16:53;49.54;38.57;66.53;;
66450;Laerm;56829;52.274;4.770;2023-07-13T00:17:04;46.58;40.77;57.35;;
66450;Laerm;56829;52.274;4.770;2023-07-13T00:17:14;47.14;42.65;55.89;;
66450;Laerm;56829;52.274;4.770;2023-07-13T00:17:24;52.99;41.52;65.46;;
66450;Laerm;56829;52.274;4.770;2023-07-13T00:17:35;44.65;37.69;52.09;;
66450;Laerm;56829;52.274;4.770;2023-07-13T00:17:45;37.67;35.56;42.53;;
66450;Laerm;56829;52.274;4.770;2023-07-13T00:17:55;38.20;35.25;40.23;;
66450;Laerm;56829;52.274;4.770;2023-07-13T00:18:05;38.09;36.17;44.04;;
66450;Laerm;56829;52.274;4.770;2023-07-13T00:18:16;37.53;35.72;45.70;;
66450;Laerm;56829;52.274;4.770;2023-07-13T00:18:26;37.39;35.40;40.00;;
66450;Laerm;56829;52.274;4.770;2023-07-13T00:18:40;38.27;35.27;44.67;;
66450;Laerm;56829;52.274;4.770;2023-07-13T00:18:50;37.07;35.25;41.72;;
66450;Laerm;56829;52.274;4.770;2023-07-13T00:19:00;39.98;34.64;47.52;;
66450;Laerm;56829;52.274;4.770;2023-07-13T00:19:11;36.59;33.95;41.25;;
66450;Laerm;56829;52.274;4.770;2023-07-13T00:19:22;37.35;34.83;42.13;;
66450;Laerm;56829;52.274;4.770;2023-07-13T00:19:32;36.99;35.05;40.17;;
66450;Laerm;56829;52.274;4.770;2023-07-13T00:19:42;41.41;36.47;54.26;;
66450;Laerm;56829;52.274;4.770;2023-07-13T00:19:53;43.41;34.54;55.55;;
66450;Laerm;56829;52.274;4.770;2023-07-13T00:20:03;36.34;34.50;42.72;;
66450;Laerm;56829;52.274;4.770;2023-07-13T00:20:14;37.32;34.74;40.78;;
66450;Laerm;56829;52.274;4.770;2023-07-13T00:20:24;38.84;34.99;45.18;;
66450;Laerm;56829;52.274;4.770;2023-07-13T00:20:35;36.30;34.22;39.75;;
66450;Laerm;56829;52.274;4.770;2023-07-13T00:20:45;35.64;33.66;40.85;;
66450;Laerm;56829;52.274;4.770;2023-07-13T00:20:56;40.92;34.74;51.38;;
66450;Laerm;56829;52.274;4.770;2023-07-13T00:21:14;35.62;33.70;43.15;;
66450;Laerm;56829;52.274;4.770;2023-07-13T00:21:24;38.33;34.92;45.91;;
66450;Laerm;56829;52.274;4.770;2023-07-13T00:21:35;42.04;36.17;47.97;;
66450;Laerm;56829;52.274;4.770;2023-07-13T00:21:45;36.10;33.80;40.15;;
66450;Laerm;56829;52.274;4.770;2023-07-13T00:21:55;35.86;33.84;39.08;;
66450;Laerm;56829;52.274;4.770;2023-07-13T00:22:06;35.88;34.43;43.23;;
66450;Laerm;56829;52.274;4.770;2023-07-13T00:22:16;35.46;33.92;37.10;;
66450;Laerm;56829;52.274;4.770;2023-07-13T00:22:27;36.22;34.00;42.81;;
66450;Laerm;56829;52.274;4.770;2023-07-13T00:22:38;36.09;33.61;41.46;;
66450;Laerm;56829;52.274;4.770;2023-07-13T00:22:48;36.08;34.01;38.79;;
66450;Laerm;56829;52.274;4.770;2023-07-13T00:22:59;36.88;33.76;42.66;;
66450;Laerm;56829;52.274;4.770;2023-07-13T00:23:09;36.99;35.04;39.63;;
66450;Laerm;56829;52.274;4.770;2023-07-13T00:23:20;36.10;34.49;39.04;;
66450;Laerm;56829;52.274;4.770;2023-07-13T00:23:39;40.95;35.61;48.30;;
66450;Laerm;56829;52.274;4.770;2023-07-13T00:23:50;48.50;36.46;62.18;;
66450;Laerm;56829;52.274;4.770;2023-07-13T00:24:00;41.98;36.88;47.52;;
66450;Laerm;56829;52.274;4.770;2023-07-13T00:24:11;48.58;38.45;55.21;;
66450;Laerm;56829;52.274;4.770;2023-07-13T00:24:25;38.40;36.06;40.99;;
66450;Laerm;56829;52.274;4.770;2023-07-13T00:24:37;41.75;37.26;48.58;;
66450;Laerm;56829;52.274;4.770;2023-07-13T00:24:52;49.75;35.61;60.27;;
66450;Laerm;56829;52.274;4.770;2023-07-13T00:25:02;36.95;34.52;39.22;;
66450;Laerm;56829;52.274;4.770;2023-07-13T00:25:12;36.56;34.43;38.88;;
66450;Laerm;56829;52.274;4.770;2023-07-13T00:25:23;35.19;32.89;37.60;;
66450;Laerm;56829;52.274;4.770;2023-07-13T00:25:38;35.63;33.90;37.80;;
66450;Laerm;56829;52.274;4.770;2023-07-13T00:25:48;36.93;33.99;39.38;;
66450;Laerm;56829;52.274;4.770;2023-07-13T00:26:01;36.64;34.01;38.97;;
66450;Laerm;56829;52.274;4.770;2023-07-13T00:26:12;36.84;34.52;41.82;;
66450;Laerm;56829;52.274;4.770;2023-07-13T00:26:22;36.36;33.86;42.65;;
66450;Laerm;56829;52.274;4.770;2023-07-13T00:26:33;37.13;35.00;40.49;;
66450;Laerm;56829;52.274;4.770;2023-07-13T00:26:43;38.31;36.12;41.72;;
66450;Laerm;56829;52.274;4.770;2023-07-13T00:26:57;38.61;35.22;45.95;;
66450;Laerm;56829;52.274;4.770;2023-07-13T00:27:08;37.00;34.91;42.15;;
66450;Laerm;56829;52.274;4.770;2023-07-13T00:27:18;35.70;33.86;39.70;;
66450;Laerm;56829;52.274;4.770;2023-07-13T00:27:28;36.50;34.74;42.60;;
66450;Laerm;56829;52.274;4.770;2023-07-13T00:27:42;45.48;37.65;55.47;;
66450;Laerm;56829;52.274;4.770;2023-07-13T00:27:52;41.97;35.01;50.71;;
66450;Laerm;56829;52.274;4.770;2023-07-13T00:28:03;42.49;34.67;49.84;;
66450;Laerm;56829;52.274;4.770;2023-07-13T00:28:13;34.80;33.09;39.35;;
66450;Laerm;56829;52.274;4.770;2023-07-13T00:28:23;34.90;32.81;39.62;;
66450;Laerm;56829;52.274;4.770;2023-07-13T00:28:34;35.18;32.97;39.31;;
66450;Laerm;56829;52.274;4.770;2023-07-13T00:28:45;40.34;35.17;45.71;;
66450;Laerm;56829;52.274;4.770;2023-07-13T00:28:55;37.50;34.17;47.54;;
66450;Laerm;56829;52.274;4.770;2023-07-13T00:29:05;35.40;32.65;39.00;;
66450;Laerm;56829;52.274;4.770;2023-07-13T00:29:19;36.08;33.74;42.89;;
66450;Laerm;56829;52.274;4.770;2023-07-13T00:29:31;35.66;33.14;40.94;;
66450;Laerm;56829;52.274;4.770;2023-07-13T00:29:43;36.38;34.01;42.27;;
66450;Laerm;56829;52.274;4.770;2023-07-13T00:29:54;37.65;34.60;44.94;;
66450;Laerm;56829;52.274;4.770;2023-07-13T00:30:05;45.41;38.18;57.07;;
66450;Laerm;56829;52.274;4.770;2023-07-13T00:30:16;43.36;35.80;51.24;;
66450;Laerm;56829;52.274;4.770;2023-07-13T00:30:26;36.43;34.83;47.74;;
66450;Laerm;56829;52.274;4.770;2023-07-13T00:30:36;39.41;36.54;45.26;;
66450;Laerm;56829;52.274;4.770;2023-07-13T00:30:47;44.96;37.21;50.06;;
66450;Laerm;56829;52.274;4.770;2023-07-13T00:30:57;46.50;38.66;57.42;;
66450;Laerm;56829;52.274;4.770;2023-07-13T00:31:08;38.03;34.52;45.74;;
66450;Laerm;56829;52.274;4.770;2023-07-13T00:31:19;36.55;33.98;39.35;;
66450;Laerm;56829;52.274;4.770;2023-07-13T00:31:30;38.14;35.70;45.55;;
66450;Laerm;56829;52.274;4.770;2023-07-13T00:31:40;41.57;36.94;50.77;;
66450;Laerm;56829;52.274;4.770;2023-07-13T00:31:51;37.70;35.78;42.83;;
66450;Laerm;56829;52.274;4.770;2023-07-13T00:32:02;41.13;34.16;49.39;;
66450;Laerm;56829;52.274;4.770;2023-07-13T00:32:12;35.31;33.03;41.35;;
66450;Laerm;56829;52.274;4.770;2023-07-13T00:32:23;36.44;33.56;42.26;;
66450;Laerm;56829;52.274;4.770;2023-07-13T00:32:35;35.94;33.80;40.41;;
66450;Laerm;56829;52.274;4.770;2023-07-13T00:32:45;35.32;33.76;39.98;;
66450;Laerm;56829;52.274;4.770;2023-07-13T00:32:55;36.27;34.10;40.88;;
66450;Laerm;56829;52.274;4.770;2023-07-13T00:33:09;42.31;35.13;48.14;;
66450;Laerm;56829;52.274;4.770;2023-07-13T00:33:19;45.18;38.50;50.56;;
66450;Laerm;56829;52.274;4.770;2023-07-13T00:33:29;42.83;35.26;51.75;;
66450;Laerm;56829;52.274;4.770;2023-07-13T00:33:40;40.67;36.31;47.42;;
66450;Laerm;56829;52.274;4.770;2023-07-13T00:33:50;40.32;36.58;45.17;;
66450;Laerm;56829;52.274;4.770;2023-07-13T00:34:01;37.27;35.03;41.82;;
66450;Laerm;56829;52.274;4.770;2023-07-13T00:34:11;36.94;34.66;40.73;;
66450;Laerm;56829;52.274;4.770;2023-07-13T00:34:21;35.86;33.60;42.18;;
66450;Laerm;56829;52.274;4.770;2023-07-13T00:34:32;35.93;33.27;42.03;;
66450;Laerm;56829;52.274;4.770;2023-07-13T00:34:42;35.83;33.66;43.38;;
66450;Laerm;56829;52.274;4.770;2023-07-13T00:34:53;35.84;33.94;39.23;;
66450;Laerm;56829;52.274;4.770;2023-07-13T00:35:03;36.53;34.56;41.63;;
66450;Laerm;56829;52.274;4.770;2023-07-13T00:35:14;37.41;34.94;44.09;;
66450;Laerm;56829;52.274;4.770;2023-07-13T00:35:25;39.65;36.80;43.32;;
66450;Laerm;56829;52.274;4.770;2023-07-13T00:35:35;39.20;35.52;47.20;;
66450;Laerm;56829;52.274;4.770;2023-07-13T00:35:46;38.69;33.68;50.27;;
66450;Laerm;56829;52.274;4.770;2023-07-13T00:35:56;35.80;33.88;38.92;;
66450;Laerm;56829;52.274;4.770;2023-07-13T00:36:09;35.62;34.03;41.16;;
66450;Laerm;56829;52.274;4.770;2023-07-13T00:36:19;36.75;33.66;40.38;;
66450;Laerm;56829;52.274;4.770;2023-07-13T00:36:30;42.91;38.99;48.88;;
66450;Laerm;56829;52.274;4.770;2023-07-13T00:36:40;46.93;38.29;59.04;;
66450;Laerm;56829;52.274;4.770;2023-07-13T00:36:51;37.87;35.27;44.50;;
66450;Laerm;56829;52.274;4.770;2023-07-13T00:37:01;40.90;36.25;49.56;;
66450;Laerm;56829;52.274;4.770;2023-07-13T00:37:11;37.73;34.10;52.26;;
66450;Laerm;56829;52.274;4.770;2023-07-13T00:37:21;35.13;33.11;36.78;;
66450;Laerm;56829;52.274;4.770;2023-07-13T00:37:32;35.53;33.75;37.72;;
66450;Laerm;56829;52.274;4.770;2023-07-13T00:37:42;35.55;33.13;38.03;;
66450;Laerm;56829;52.274;4.770;2023-07-13T00:37:52;35.86;33.98;37.75;;
66450;Laerm;56829;52.274;4.770;2023-07-13T00:38:03;35.78;33.66;39.36;;
66450;Laerm;56829;52.274;4.770;2023-07-13T00:38:13;35.41;33.30;40.24;;
66450;Laerm;56829;52.274;4.770;2023-07-13T00:38:23;35.91;33.64;37.63;;
66450;Laerm;56829;52.274;4.770;2023-07-13T00:38:34;36.76;34.94;38.59;;
66450;Laerm;56829;52.274;4.770;2023-07-13T00:38:44;47.17;36.35;54.98;;
66450;Laerm;56829;52.274;4.770;2023-07-13T00:38:54;56.08;47.44;64.82;;
66450;Laerm;56829;52.274;4.770;2023-07-13T00:39:05;55.18;45.07;65.57;;
66450;Laerm;56829;52.274;4.770;2023-07-13T00:39:15;47.92;40.61;55.79;;
66450;Laerm;56829;52.274;4.770;2023-07-13T00:39:25;42.88;38.56;47.68;;
66450;Laerm;56829;52.274;4.770;2023-07-13T00:39:36;42.84;37.27;47.27;;
66450;Laerm;56829;52.274;4.770;2023-07-13T00:39:46;44.35;36.43;53.72;;
66450;Laerm;56829;52.274;4.770;2023-07-13T00:39:56;38.82;35.49;46.44;;
66450;Laerm;56829;52.274;4.770;2023-07-13T00:40:07;38.42;35.54;43.34;;
66450;Laerm;56829;52.274;4.770;2023-07-13T00:40:17;39.34;36.33;43.66;;
66450;Laerm;56829;52.274;4.770;2023-07-13T00:40:27;37.99;34.90;42.68;;
66450;Laerm;56829;52.274;4.770;2023-07-13T00:40:38;39.42;34.68;46.32;;
66450;Laerm;56829;52.274;4.770;2023-07-13T00:40:48;39.52;36.39;43.47;;
66450;Laerm;56829;52.274;4.770;2023-07-13T00:40:58;53.90;38.10;63.32;;
66450;Laerm;56829;52.274;4.770;2023-07-13T00:41:09;47.21;39.46;55.75;;
66450;Laerm;56829;52.274;4.770;2023-07-13T00:41:19;42.84;38.20;45.65;;
66450;Laerm;56829;52.274;4.770;2023-07-13T00:41:30;39.36;35.60;43.56;;
66450;Laerm;56829;52.274;4.770;2023-07-13T00:41:41;38.50;35.63;43.45;;
66450;Laerm;56829;52.274;4.770;2023-07-13T00:41:51;39.01;35.92;43.06;;
66450;Laerm;56829;52.274;4.770;2023-07-13T00:42:02;38.12;35.91;40.58;;
66450;Laerm;56829;52.274;4.770;2023-07-13T00:42:13;36.79;34.46;40.29;;
66450;Laerm;56829;52.274;4.770;2023-07-13T00:42:23;36.41;33.93;38.62;;
66450;Laerm;56829;52.274;4.770;2023-07-13T00:42:33;36.25;33.95;42.57;;
66450;Laerm;56829;52.274;4.770;2023-07-13T00:42:44;37.47;34.03;50.88;;
66450;Laerm;56829;52.274;4.770;2023-07-13T00:42:56;35.78;33.60;38.45;;
66450;Laerm;56829;52.274;4.770;2023-07-13T00:43:13;36.14;33.81;39.22;;
66450;Laerm;56829;52.274;4.770;2023-07-13T00:43:26;36.39;33.82;40.60;;
66450;Laerm;56829;52.274;4.770;2023-07-13T00:43:36;37.39;35.23;41.43;;
66450;Laerm;56829;52.274;4.770;2023-07-13T00:43:47;36.87;34.40;41.24;;
66450;Laerm;56829;52.274;4.770;2023-07-13T00:43:57;36.02;33.13;38.08;;
66450;Laerm;56829;52.274;4.770;2023-07-13T00:44:11;35.46;33.68;38.15;;
66450;Laerm;56829;52.274;4.770;2023-07-13T00:44:23;37.37;34.45;42.63;;
66450;Laerm;56829;52.274;4.770;2023-07-13T00:44:34;38.12;34.63;44.40;;
66450;Laerm;56829;52.274;4.770;2023-07-13T00:45:00;36.32;34.14;40.86;;
66450;Laerm;56829;52.274;4.770;2023-07-13T00:46:39;38.23;33.54;47.77;;
66450;Laerm;56829;52.274;4.770;2023-07-13T00:46:50;35.82;33.73;41.69;;
66450;Laerm;56829;52.274;4.770;2023-07-13T00:47:00;36.34;34.16;41.07;;
66450;Laerm;56829;52.274;4.770;2023-07-13T00:47:10;36.04;33.69;40.52;;
66450;Laerm;56829;52.274;4.770;2023-07-13T00:47:21;35.73;34.23;37.71;;
66450;Laerm;56829;52.274;4.770;2023-07-13T00:47:31;36.25;33.98;39.30;;
66450;Laerm;56829;52.274;4.770;2023-07-13T00:47:43;35.77;34.15;37.67;;
66450;Laerm;56829;52.274;4.770;2023-07-13T00:47:53;36.56;34.65;38.18;;
66450;Laerm;56829;52.274;4.770;2023-07-13T00:48:05;35.62;34.22;37.53;;
66450;Laerm;56829;52.274;4.770;2023-07-13T00:48:17;36.01;34.01;38.33;;
66450;Laerm;56829;52.274;4.770;2023-07-13T00:48:32;38.23;33.69;46.07;;
66450;Laerm;56829;52.274;4.770;2023-07-13T00:48:44;39.36;33.82;48.47;;
66450;Laerm;56829;52.274;4.770;2023-07-13T00:48:56;35.63;34.14;37.93;;
66450;Laerm;56829;52.274;4.770;2023-07-13T00:49:08;36.47;34.46;38.97;;
66450;Laerm;56829;52.274;4.770;2023-07-13T00:49:21;36.42;34.47;38.47;;
66450;Laerm;56829;52.274;4.770;2023-07-13T00:49:33;35.37;33.32;38.54;;
66450;Laerm;56829;52.274;4.770;2023-07-13T00:49:45;35.15;33.06;36.78;;
66450;Laerm;56829;52.274;4.770;2023-07-13T00:49:55;35.21;33.47;39.39;;
66450;Laerm;56829;52.274;4.770;2023-07-13T00:50:06;36.31;34.29;38.20;;
66450;Laerm;56829;52.274;4.770;2023-07-13T00:50:17;35.50;33.30;38.45;;
66450;Laerm;56829;52.274;4.770;2023-07-13T00:50:29;35.09;33.09;37.35;;
66450;Laerm;56829;52.274;4.770;2023-07-13T00:50:39;35.51;33.05;38.21;;
66450;Laerm;56829;52.274;4.770;2023-07-13T00:50:50;35.47;33.45;39.10;;
66450;Laerm;56829;52.274;4.770;2023-07-13T00:51:02;35.37;32.90;38.06;;
66450;Laerm;56829;52.274;4.770;2023-07-13T00:51:12;36.07;33.90;41.65;;
66450;Laerm;56829;52.274;4.770;2023-07-13T00:51:25;38.63;34.81;45.38;;
66450;Laerm;56829;52.274;4.770;2023-07-13T00:51:38;38.07;34.84;46.42;;
66450;Laerm;56829;52.274;4.770;2023-07-13T00:52:06;36.01;33.64;39.60;;
66450;Laerm;56829;52.274;4.770;2023-07-13T00:52:17;35.50;32.53;48.42;;
66450;Laerm;56829;52.274;4.770;2023-07-13T00:52:27;35.43;33.70;38.06;;
66450;Laerm;56829;52.274;4.770;2023-07-13T00:52:46;35.02;33.41;36.82;;
66450;Laerm;56829;52.274;4.770;2023-07-13T00:52:57;35.70;33.37;38.72;;
66450;Laerm;56829;52.274;4.770;2023-07-13T00:53:08;37.12;34.96;39.88;;
66450;Laerm;56829;52.274;4.770;2023-07-13T00:53:19;36.60;33.63;48.03;;
66450;Laerm;56829;52.274;4.770;2023-07-13T00:53:29;35.77;33.36;38.88;;
66450;Laerm;56829;52.274;4.770;2023-07-13T00:53:42;36.43;34.02;41.18;;
66450;Laerm;56829;52.274;4.770;2023-07-13T00:53:53;36.03;34.08;37.90;;
66450;Laerm;56829;52.274;4.770;2023-07-13T00:54:05;35.21;33.28;37.46;;
66450;Laerm;56829;52.274;4.770;2023-07-13T00:54:18;35.26;33.42;37.37;;
66450;Laerm;56829;52.274;4.770;2023-07-13T00:54:33;35.00;33.10;41.82;;
66450;Laerm;56829;52.274;4.770;2023-07-13T00:54:45;35.92;33.55;38.01;;
66450;Laerm;56829;52.274;4.770;2023-07-13T00:54:56;36.50;34.40;43.40;;
66450;Laerm;56829;52.274;4.770;2023-07-13T00:55:07;36.27;34.33;37.96;;
66450;Laerm;56829;52.274;4.770;2023-07-13T00:55:19;38.06;35.39;40.40;;
66450;Laerm;56829;52.274;4.770;2023-07-13T00:55:31;44.07;38.45;51.24;;
66450;Laerm;56829;52.274;4.770;2023-07-13T00:55:41;37.59;34.73;40.96;;
66450;Laerm;56829;52.274;4.770;2023-07-13T00:55:52;36.32;33.95;41.13;;
66450;Laerm;56829;52.274;4.770;2023-07-13T00:56:03;36.90;34.73;39.81;;
66450;Laerm;56829;52.274;4.770;2023-07-13T00:56:14;35.36;33.51;36.88;;
66450;Laerm;56829;52.274;4.770;2023-07-13T00:56:24;36.39;34.52;38.60;;
66450;Laerm;56829;52.274;4.770;2023-07-13T00:56:35;36.93;34.78;40.17;;
66450;Laerm;56829;52.274;4.770;2023-07-13T00:56:47;36.87;34.59;40.48;;
66450;Laerm;56829;52.274;4.770;2023-07-13T00:57:00;36.31;34.44;40.32;;
66450;Laerm;56829;52.274;4.770;2023-07-13T00:57:12;35.68;33.76;38.52;;
66450;Laerm;56829;52.274;4.770;2023-07-13T00:57:24;38.12;34.05;49.62;;
66450;Laerm;56829;52.274;4.770;2023-07-13T00:57:34;37.40;34.04;41.66;;
66450;Laerm;56829;52.274;4.770;2023-07-13T00:57:44;36.32;34.54;38.79;;
66450;Laerm;56829;52.274;4.770;2023-07-13T00:57:55;38.05;34.66;45.01;;
66450;Laerm;56829;52.274;4.770;2023-07-13T00:58:05;37.38;35.72;39.43;;
66450;Laerm;56829;52.274;4.770;2023-07-13T00:58:16;38.10;35.24;41.44;;
66450;Laerm;56829;52.274;4.770;2023-07-13T00:58:27;38.86;37.24;41.46;;
66450;Laerm;56829;52.274;4.770;2023-07-13T00:58:38;43.85;36.19;57.16;;
66450;Laerm;56829;52.274;4.770;2023-07-13T00:58:48;36.94;34.67;43.47;;
66450;Laerm;56829;52.274;4.770;2023-07-13T00:59:00;36.48;34.79;38.68;;
66450;Laerm;56829;52.274;4.770;2023-07-13T00:59:12;36.51;34.69;44.83;;
66450;Laerm;56829;52.274;4.770;2023-07-13T00:59:25;39.02;35.98;47.91;;
66450;Laerm;56829;52.274;4.770;2023-07-13T00:59:36;36.92;34.41;39.02;;
66450;Laerm;56829;52.274;4.770;2023-07-13T00:59:47;36.09;34.15;38.04;;
66450;Laerm;56829;52.274;4.770;2023-07-13T00:59:59;34.84;33.35;36.77;;
66450;Laerm;56829;52.274;4.770;2023-07-13T01:00:13;35.11;33.20;40.82;;
66450;Laerm;56829;52.274;4.770;2023-07-13T01:00:23;36.15;33.58;49.54;;
66450;Laerm;56829;52.274;4.770;2023-07-13T01:00:36;35.64;33.63;43.99;;
66450;Laerm;56829;52.274;4.770;2023-07-13T01:00:47;35.99;33.95;38.96;;
66450;Laerm;56829;52.274;4.770;2023-07-13T01:00:58;35.53;33.79;41.77;;
66450;Laerm;56829;52.274;4.770;2023-07-13T01:01:08;36.72;34.07;45.88;;
66450;Laerm;56829;52.274;4.770;2023-07-13T01:01:19;37.48;35.04;46.42;;
66450;Laerm;56829;52.274;4.770;2023-07-13T01:01:29;36.60;34.44;40.02;;
66450;Laerm;56829;52.274;4.770;2023-07-13T01:01:39;36.38;33.65;39.71;;
66450;Laerm;56829;52.274;4.770;2023-07-13T01:01:49;36.31;34.33;38.59;;
66450;Laerm;56829;52.274;4.770;2023-07-13T01:02:00;36.33;34.71;38.54;;
66450;Laerm;56829;52.274;4.770;2023-07-13T01:02:11;35.70;34.05;37.70;;
66450;Laerm;56829;52.274;4.770;2023-07-13T01:02:21;36.64;34.10;40.12;;
66450;Laerm;56829;52.274;4.770;2023-07-13T01:02:32;37.80;35.07;43.98;;
66450;Laerm;56829;52.274;4.770;2023-07-13T01:02:44;37.30;34.59;42.55;;
66450;Laerm;56829;52.274;4.770;2023-07-13T01:02:56;37.66;34.31;43.18;;
66450;Laerm;56829;52.274;4.770;2023-07-13T01:03:06;37.43;34.24;42.45;;
66450;Laerm;56829;52.274;4.770;2023-07-13T01:03:17;36.18;34.57;37.79;;
66450;Laerm;56829;52.274;4.770;2023-07-13T01:03:28;36.31;34.58;38.95;;
66450;Laerm;56829;52.274;4.770;2023-07-13T01:03:39;36.87;34.38;46.40;;
66450;Laerm;56829;52.274;4.770;2023-07-13T01:03:50;37.80;35.25;41.14;;
66450;Laerm;56829;52.274;4.770;2023-07-13T01:04:00;37.05;35.15;41.42;;
66450;Laerm;56829;52.274;4.770;2023-07-13T01:04:11;36.73;34.52;39.06;;
66450;Laerm;56829;52.274;4.770;2023-07-13T01:04:23;37.00;34.24;41.13;;
66450;Laerm;56829;52.274;4.770;2023-07-13T01:04:33;37.90;34.00;43.70;;
66450;Laerm;56829;52.274;4.770;2023-07-13T01:04:43;36.67;33.86;41.98;;
66450;Laerm;56829;52.274;4.770;2023-07-13T01:04:55;36.54;33.78;43.02;;